sensor_id;sensor_type;location;lat;lon;timestamp;P1;durP1;ratioP1;P2;durP2;ratioP2
9880;SDS011;4979;51.014;6.678;2022-08-03T00:01:33;2.67;;;2.05;;
9880;SDS011;4979;51.014;6.678;2022-08-03T00:03:59;2.05;;;1.83;;
9880;SDS011;4979;51.014;6.678;2022-08-03T00:06:24;6.93;;;2.30;;
9880;SDS011;4979;51.014;6.678;2022-08-03T00:08:50;7.50;;;2.45;;
9880;SDS011;4979;51.014;6.678;2022-08-03T00:11:16;10.70;;;3.60;;
9880;SDS011;4979;51.014;6.678;2022-08-03T00:13:42;7.80;;;2.10;;
9880;SDS011;4979;51.014;6.678;2022-08-03T00:16:07;4.40;;;2.33;;
9880;SDS011;4979;51.014;6.678;2022-08-03T00:18:34;4.63;;;2.28;;
9880;SDS011;4979;51.014;6.678;2022-08-03T00:21:01;8.35;;;2.53;;
9880;SDS011;4979;51.014;6.678;2022-08-03T00:23:28;11.32;;;2.97;;
9880;SDS011;4979;51.014;6.678;2022-08-03T00:25:53;4.60;;;2.20;;
9880;SDS011;4979;51.014;6.678;2022-08-03T00:28:19;6.03;;;2.50;;
9880;SDS011;4979;51.014;6.678;2022-08-03T00:30:44;3.42;;;2.20;;
9880;SDS011;4979;51.014;6.678;2022-08-03T00:33:10;4.25;;;2.28;;
9880;SDS011;4979;51.014;6.678;2022-08-03T00:35:36;7.82;;;2.50;;
9880;SDS011;4979;51.014;6.678;2022-08-03T00:38:01;3.78;;;2.35;;
9880;SDS011;4979;51.014;6.678;2022-08-03T00:40:27;9.73;;;2.17;;
9880;SDS011;4979;51.014;6.678;2022-08-03T00:43:00;8.20;;;2.90;;
9880;SDS011;4979;51.014;6.678;2022-08-03T00:45:37;4.80;;;1.98;;
9880;SDS011;4979;51.014;6.678;2022-08-03T00:48:05;6.47;;;2.20;;
9880;SDS011;4979;51.014;6.678;2022-08-03T00:50:35;9.02;;;2.38;;
9880;SDS011;4979;51.014;6.678;2022-08-03T00:53:04;10.40;;;3.22;;
9880;SDS011;4979;51.014;6.678;2022-08-03T00:55:32;5.30;;;2.58;;
9880;SDS011;4979;51.014;6.678;2022-08-03T00:57:58;6.47;;;2.30;;
9880;SDS011;4979;51.014;6.678;2022-08-03T01:00:26;6.15;;;3.13;;
9880;SDS011;4979;51.014;6.678;2022-08-03T01:02:52;10.75;;;2.85;;
9880;SDS011;4979;51.014;6.678;2022-08-03T01:05:18;5.15;;;2.53;;
9880;SDS011;4979;51.014;6.678;2022-08-03T01:07:59;4.40;;;2.47;;
9880;SDS011;4979;51.014;6.678;2022-08-03T01:13:47;8.63;;;3.40;;
9880;SDS011;4979;51.014;6.678;2022-08-03T01:16:18;4.05;;;2.50;;
9880;SDS011;4979;51.014;6.678;2022-08-03T01:19:08;7.95;;;2.75;;
9880;SDS011;4979;51.014;6.678;2022-08-03T01:21:54;7.75;;;2.78;;
9880;SDS011;4979;51.014;6.678;2022-08-03T01:27:11;5.63;;;2.75;;
9880;SDS011;4979;51.014;6.678;2022-08-03T01:30:05;6.50;;;3.05;;
9880;SDS011;4979;51.014;6.678;2022-08-03T01:35:15;11.00;;;2.88;;
9880;SDS011;4979;51.014;6.678;2022-08-03T01:37:59;6.50;;;2.50;;
9880;SDS011;4979;51.014;6.678;2022-08-03T01:40:27;9.20;;;2.90;;
9880;SDS011;4979;51.014;6.678;2022-08-03T01:42:56;7.82;;;2.75;;
9880;SDS011;4979;51.014;6.678;2022-08-03T01:45:24;6.55;;;2.33;;
9880;SDS011;4979;51.014;6.678;2022-08-03T01:47:51;9.98;;;2.83;;
9880;SDS011;4979;51.014;6.678;2022-08-03T01:50:20;6.60;;;2.80;;
9880;SDS011;4979;51.014;6.678;2022-08-03T01:52:48;9.32;;;2.72;;
9880;SDS011;4979;51.014;6.678;2022-08-03T01:55:16;6.75;;;2.33;;
9880;SDS011;4979;51.014;6.678;2022-08-03T01:57:44;6.57;;;3.00;;
9880;SDS011;4979;51.014;6.678;2022-08-03T02:00:12;10.45;;;3.28;;
9880;SDS011;4979;51.014;6.678;2022-08-03T02:02:38;9.85;;;3.05;;
9880;SDS011;4979;51.014;6.678;2022-08-03T02:05:06;6.28;;;2.92;;
9880;SDS011;4979;51.014;6.678;2022-08-03T02:07:34;9.65;;;3.20;;
9880;SDS011;4979;51.014;6.678;2022-08-03T02:10:02;9.35;;;3.53;;
9880;SDS011;4979;51.014;6.678;2022-08-03T02:12:30;7.40;;;3.20;;
9880;SDS011;4979;51.014;6.678;2022-08-03T02:14:58;9.30;;;3.63;;
9880;SDS011;4979;51.014;6.678;2022-08-03T02:17:26;9.98;;;3.15;;
9880;SDS011;4979;51.014;6.678;2022-08-03T02:19:53;6.65;;;3.33;;
9880;SDS011;4979;51.014;6.678;2022-08-03T02:22:22;9.82;;;3.15;;
9880;SDS011;4979;51.014;6.678;2022-08-03T02:24:49;6.45;;;3.22;;
9880;SDS011;4979;51.014;6.678;2022-08-03T02:27:19;4.88;;;3.10;;
9880;SDS011;4979;51.014;6.678;2022-08-03T02:29:48;7.20;;;3.55;;
9880;SDS011;4979;51.014;6.678;2022-08-03T02:32:18;7.80;;;3.72;;
9880;SDS011;4979;51.014;6.678;2022-08-03T02:34:47;8.02;;;3.67;;
9880;SDS011;4979;51.014;6.678;2022-08-03T02:37:17;4.90;;;3.47;;
9880;SDS011;4979;51.014;6.678;2022-08-03T02:39:44;5.45;;;3.30;;
9880;SDS011;4979;51.014;6.678;2022-08-03T02:42:11;6.22;;;3.05;;
9880;SDS011;4979;51.014;6.678;2022-08-03T02:44:39;6.57;;;3.38;;
9880;SDS011;4979;51.014;6.678;2022-08-03T02:47:11;5.90;;;3.22;;
9880;SDS011;4979;51.014;6.678;2022-08-03T02:49:39;7.05;;;2.97;;
9880;SDS011;4979;51.014;6.678;2022-08-03T02:52:08;6.93;;;3.03;;
9880;SDS011;4979;51.014;6.678;2022-08-03T02:54:35;10.55;;;3.72;;
9880;SDS011;4979;51.014;6.678;2022-08-03T02:57:02;5.45;;;3.13;;
9880;SDS011;4979;51.014;6.678;2022-08-03T02:59:29;3.08;;;2.63;;
9880;SDS011;4979;51.014;6.678;2022-08-03T03:01:56;6.18;;;3.00;;
9880;SDS011;4979;51.014;6.678;2022-08-03T03:04:24;5.80;;;2.50;;
9880;SDS011;4979;51.014;6.678;2022-08-03T03:06:52;4.80;;;2.90;;
9880;SDS011;4979;51.014;6.678;2022-08-03T03:09:18;5.38;;;2.78;;
9880;SDS011;4979;51.014;6.678;2022-08-03T03:11:44;6.95;;;3.17;;
9880;SDS011;4979;51.014;6.678;2022-08-03T03:14:12;10.88;;;3.28;;
9880;SDS011;4979;51.014;6.678;2022-08-03T03:16:39;6.07;;;3.10;;
9880;SDS011;4979;51.014;6.678;2022-08-03T03:19:07;4.50;;;2.60;;
9880;SDS011;4979;51.014;6.678;2022-08-03T03:21:34;6.07;;;3.17;;
9880;SDS011;4979;51.014;6.678;2022-08-03T03:24:01;5.57;;;3.10;;
9880;SDS011;4979;51.014;6.678;2022-08-03T03:26:27;5.45;;;3.17;;
9880;SDS011;4979;51.014;6.678;2022-08-03T03:28:53;7.75;;;3.22;;
9880;SDS011;4979;51.014;6.678;2022-08-03T03:31:19;5.43;;;3.60;;
9880;SDS011;4979;51.014;6.678;2022-08-03T03:33:45;5.40;;;3.38;;
9880;SDS011;4979;51.014;6.678;2022-08-03T03:36:21;5.47;;;3.50;;
9880;SDS011;4979;51.014;6.678;2022-08-03T03:38:47;8.70;;;2.95;;
9880;SDS011;4979;51.014;6.678;2022-08-03T03:41:12;8.38;;;3.08;;
9880;SDS011;4979;51.014;6.678;2022-08-03T03:43:38;6.43;;;3.00;;
9880;SDS011;4979;51.014;6.678;2022-08-03T03:46:04;7.15;;;3.30;;
9880;SDS011;4979;51.014;6.678;2022-08-03T03:48:30;6.63;;;3.10;;
9880;SDS011;4979;51.014;6.678;2022-08-03T03:50:56;6.32;;;3.10;;
9880;SDS011;4979;51.014;6.678;2022-08-03T03:53:23;5.22;;;3.20;;
9880;SDS011;4979;51.014;6.678;2022-08-03T03:55:49;6.65;;;3.25;;
9880;SDS011;4979;51.014;6.678;2022-08-03T03:58:16;5.13;;;3.17;;
9880;SDS011;4979;51.014;6.678;2022-08-03T04:00:42;5.93;;;2.88;;
9880;SDS011;4979;51.014;6.678;2022-08-03T04:03:09;6.97;;;2.92;;
9880;SDS011;4979;51.014;6.678;2022-08-03T04:05:36;3.58;;;2.70;;
9880;SDS011;4979;51.014;6.678;2022-08-03T04:08:20;10.65;;;3.60;;
9880;SDS011;4979;51.014;6.678;2022-08-03T04:11:20;6.35;;;3.33;;
9880;SDS011;4979;51.014;6.678;2022-08-03T04:13:57;3.80;;;2.75;;
9880;SDS011;4979;51.014;6.678;2022-08-03T04:16:30;6.32;;;3.28;;
9880;SDS011;4979;51.014;6.678;2022-08-03T04:19:07;6.88;;;3.63;;
9880;SDS011;4979;51.014;6.678;2022-08-03T04:21:36;4.35;;;3.22;;
9880;SDS011;4979;51.014;6.678;2022-08-03T04:24:04;7.30;;;3.20;;
9880;SDS011;4979;51.014;6.678;2022-08-03T04:26:32;3.28;;;2.80;;
9880;SDS011;4979;51.014;6.678;2022-08-03T04:29:03;5.20;;;2.70;;
9880;SDS011;4979;51.014;6.678;2022-08-03T04:31:29;6.30;;;3.05;;
9880;SDS011;4979;51.014;6.678;2022-08-03T04:33:56;6.22;;;3.00;;
9880;SDS011;4979;51.014;6.678;2022-08-03T04:36:24;5.80;;;2.70;;
9880;SDS011;4979;51.014;6.678;2022-08-03T04:41:25;8.52;;;3.22;;
9880;SDS011;4979;51.014;6.678;2022-08-03T04:43:55;7.32;;;3.00;;
9880;SDS011;4979;51.014;6.678;2022-08-03T04:46:23;6.78;;;4.30;;
9880;SDS011;4979;51.014;6.678;2022-08-03T04:48:52;5.70;;;3.42;;
9880;SDS011;4979;51.014;6.678;2022-08-03T04:51:18;7.32;;;3.13;;
9880;SDS011;4979;51.014;6.678;2022-08-03T04:53:44;4.00;;;3.17;;
9880;SDS011;4979;51.014;6.678;2022-08-03T04:56:10;7.20;;;3.10;;
9880;SDS011;4979;51.014;6.678;2022-08-03T04:58:36;7.90;;;3.22;;
9880;SDS011;4979;51.014;6.678;2022-08-03T05:01:01;5.25;;;3.13;;
9880;SDS011;4979;51.014;6.678;2022-08-03T05:03:27;4.70;;;3.00;;
9880;SDS011;4979;51.014;6.678;2022-08-03T05:05:53;7.15;;;2.92;;
9880;SDS011;4979;51.014;6.678;2022-08-03T05:08:19;4.13;;;2.63;;
9880;SDS011;4979;51.014;6.678;2022-08-03T05:10:45;4.20;;;2.97;;
9880;SDS011;4979;51.014;6.678;2022-08-03T05:13:11;10.38;;;3.58;;
9880;SDS011;4979;51.014;6.678;2022-08-03T05:15:38;4.22;;;3.30;;
9880;SDS011;4979;51.014;6.678;2022-08-03T05:18:04;7.22;;;3.53;;
9880;SDS011;4979;51.014;6.678;2022-08-03T05:20:30;6.97;;;3.15;;
9880;SDS011;4979;51.014;6.678;2022-08-03T05:22:56;6.63;;;3.60;;
9880;SDS011;4979;51.014;6.678;2022-08-03T05:25:22;4.32;;;3.10;;
9880;SDS011;4979;51.014;6.678;2022-08-03T05:27:48;4.13;;;3.17;;
9880;SDS011;4979;51.014;6.678;2022-08-03T05:30:13;7.07;;;3.25;;
9880;SDS011;4979;51.014;6.678;2022-08-03T05:32:39;5.43;;;3.03;;
9880;SDS011;4979;51.014;6.678;2022-08-03T05:35:05;9.43;;;3.42;;
9880;SDS011;4979;51.014;6.678;2022-08-03T05:37:31;4.80;;;3.10;;
9880;SDS011;4979;51.014;6.678;2022-08-03T05:39:57;4.72;;;3.22;;
9880;SDS011;4979;51.014;6.678;2022-08-03T05:42:22;5.40;;;3.08;;
9880;SDS011;4979;51.014;6.678;2022-08-03T05:44:48;9.07;;;2.63;;
9880;SDS011;4979;51.014;6.678;2022-08-03T05:47:13;3.97;;;2.97;;
9880;SDS011;4979;51.014;6.678;2022-08-03T05:49:39;3.40;;;2.90;;
9880;SDS011;4979;51.014;6.678;2022-08-03T05:52:05;8.30;;;3.00;;
9880;SDS011;4979;51.014;6.678;2022-08-03T05:54:30;6.18;;;2.65;;
9880;SDS011;4979;51.014;6.678;2022-08-03T05:56:56;3.33;;;2.75;;
9880;SDS011;4979;51.014;6.678;2022-08-03T05:59:21;5.03;;;2.75;;
9880;SDS011;4979;51.014;6.678;2022-08-03T06:01:47;5.40;;;2.58;;
9880;SDS011;4979;51.014;6.678;2022-08-03T06:04:13;3.80;;;2.60;;
9880;SDS011;4979;51.014;6.678;2022-08-03T06:06:38;3.30;;;2.25;;
9880;SDS011;4979;51.014;6.678;2022-08-03T06:09:04;6.03;;;2.53;;
9880;SDS011;4979;51.014;6.678;2022-08-03T06:11:30;4.05;;;2.63;;
9880;SDS011;4979;51.014;6.678;2022-08-03T06:13:56;6.43;;;2.60;;
9880;SDS011;4979;51.014;6.678;2022-08-03T06:16:22;3.22;;;2.47;;
9880;SDS011;4979;51.014;6.678;2022-08-03T06:18:48;6.72;;;2.90;;
9880;SDS011;4979;51.014;6.678;2022-08-03T06:21:13;5.07;;;3.17;;
9880;SDS011;4979;51.014;6.678;2022-08-03T06:23:40;8.77;;;2.67;;
9880;SDS011;4979;51.014;6.678;2022-08-03T06:26:07;6.30;;;2.13;;
9880;SDS011;4979;51.014;6.678;2022-08-03T06:28:33;6.65;;;2.80;;
9880;SDS011;4979;51.014;6.678;2022-08-03T06:30:58;4.03;;;2.72;;
9880;SDS011;4979;51.014;6.678;2022-08-03T06:33:24;3.63;;;2.20;;
9880;SDS011;4979;51.014;6.678;2022-08-03T06:35:50;5.43;;;2.85;;
9880;SDS011;4979;51.014;6.678;2022-08-03T06:38:16;5.18;;;2.92;;
9880;SDS011;4979;51.014;6.678;2022-08-03T06:40:41;4.32;;;2.83;;
9880;SDS011;4979;51.014;6.678;2022-08-03T06:43:07;5.03;;;2.90;;
9880;SDS011;4979;51.014;6.678;2022-08-03T06:45:33;4.07;;;2.75;;
9880;SDS011;4979;51.014;6.678;2022-08-03T06:48:00;6.72;;;3.17;;
9880;SDS011;4979;51.014;6.678;2022-08-03T06:50:26;3.70;;;2.53;;
9880;SDS011;4979;51.014;6.678;2022-08-03T06:52:52;6.47;;;3.08;;
9880;SDS011;4979;51.014;6.678;2022-08-03T06:55:18;4.95;;;3.05;;
9880;SDS011;4979;51.014;6.678;2022-08-03T06:57:43;3.58;;;2.33;;
9880;SDS011;4979;51.014;6.678;2022-08-03T07:00:09;4.03;;;2.53;;
9880;SDS011;4979;51.014;6.678;2022-08-03T07:02:36;6.82;;;3.13;;
9880;SDS011;4979;51.014;6.678;2022-08-03T07:05:02;4.60;;;2.92;;
9880;SDS011;4979;51.014;6.678;2022-08-03T07:07:28;5.00;;;2.53;;
9880;SDS011;4979;51.014;6.678;2022-08-03T07:09:53;10.57;;;2.50;;
9880;SDS011;4979;51.014;6.678;2022-08-03T07:12:19;7.47;;;2.50;;
9880;SDS011;4979;51.014;6.678;2022-08-03T07:14:44;4.38;;;2.03;;
9880;SDS011;4979;51.014;6.678;2022-08-03T07:17:10;7.53;;;2.30;;
9880;SDS011;4979;51.014;6.678;2022-08-03T07:19:36;7.75;;;2.92;;
9880;SDS011;4979;51.014;6.678;2022-08-03T07:22:01;7.25;;;2.53;;
9880;SDS011;4979;51.014;6.678;2022-08-03T07:24:27;5.00;;;2.67;;
9880;SDS011;4979;51.014;6.678;2022-08-03T07:26:53;7.55;;;2.75;;
9880;SDS011;4979;51.014;6.678;2022-08-03T07:29:19;5.43;;;2.30;;
9880;SDS011;4979;51.014;6.678;2022-08-03T07:31:44;3.35;;;2.03;;
9880;SDS011;4979;51.014;6.678;2022-08-03T07:34:10;2.83;;;2.13;;
9880;SDS011;4979;51.014;6.678;2022-08-03T07:36:36;3.08;;;2.20;;
9880;SDS011;4979;51.014;6.678;2022-08-03T07:39:01;3.72;;;2.25;;
9880;SDS011;4979;51.014;6.678;2022-08-03T07:41:28;3.47;;;2.08;;
9880;SDS011;4979;51.014;6.678;2022-08-03T07:43:53;3.63;;;1.90;;
9880;SDS011;4979;51.014;6.678;2022-08-03T07:46:19;3.53;;;2.05;;
9880;SDS011;4979;51.014;6.678;2022-08-03T07:48:45;6.97;;;2.40;;
9880;SDS011;4979;51.014;6.678;2022-08-03T07:51:10;2.67;;;1.77;;
9880;SDS011;4979;51.014;6.678;2022-08-03T07:53:36;3.80;;;2.20;;
9880;SDS011;4979;51.014;6.678;2022-08-03T07:56:01;2.35;;;1.80;;
9880;SDS011;4979;51.014;6.678;2022-08-03T07:58:27;6.03;;;2.13;;
9880;SDS011;4979;51.014;6.678;2022-08-03T08:00:52;6.40;;;2.17;;
9880;SDS011;4979;51.014;6.678;2022-08-03T08:03:18;4.72;;;2.10;;
9880;SDS011;4979;51.014;6.678;2022-08-03T08:05:45;5.18;;;2.20;;
9880;SDS011;4979;51.014;6.678;2022-08-03T08:08:11;6.15;;;2.20;;
9880;SDS011;4979;51.014;6.678;2022-08-03T08:10:37;5.05;;;2.03;;
9880;SDS011;4979;51.014;6.678;2022-08-03T08:13:03;2.10;;;1.90;;
9880;SDS011;4979;51.014;6.678;2022-08-03T08:15:29;3.42;;;1.90;;
9880;SDS011;4979;51.014;6.678;2022-08-03T08:17:56;4.97;;;2.00;;
9880;SDS011;4979;51.014;6.678;2022-08-03T08:20:24;2.75;;;1.80;;
9880;SDS011;4979;51.014;6.678;2022-08-03T08:22:57;8.35;;;2.42;;
9880;SDS011;4979;51.014;6.678;2022-08-03T08:25:24;4.95;;;2.35;;
9880;SDS011;4979;51.014;6.678;2022-08-03T08:27:51;2.67;;;1.83;;
9880;SDS011;4979;51.014;6.678;2022-08-03T08:30:17;3.22;;;1.88;;
9880;SDS011;4979;51.014;6.678;2022-08-03T08:32:44;2.30;;;1.67;;
9880;SDS011;4979;51.014;6.678;2022-08-03T08:35:10;5.70;;;1.90;;
9880;SDS011;4979;51.014;6.678;2022-08-03T08:37:36;4.97;;;1.92;;
9880;SDS011;4979;51.014;6.678;2022-08-03T08:40:02;3.60;;;2.40;;
9880;SDS011;4979;51.014;6.678;2022-08-03T08:42:29;4.18;;;1.90;;
9880;SDS011;4979;51.014;6.678;2022-08-03T08:44:56;4.10;;;1.92;;
9880;SDS011;4979;51.014;6.678;2022-08-03T08:47:25;2.08;;;1.75;;
9880;SDS011;4979;51.014;6.678;2022-08-03T08:49:54;3.80;;;1.70;;
9880;SDS011;4979;51.014;6.678;2022-08-03T08:52:27;3.70;;;2.00;;
9880;SDS011;4979;51.014;6.678;2022-08-03T08:54:55;3.65;;;1.90;;
9880;SDS011;4979;51.014;6.678;2022-08-03T08:57:37;3.60;;;1.83;;
9880;SDS011;4979;51.014;6.678;2022-08-03T09:00:08;1.90;;;1.65;;
9880;SDS011;4979;51.014;6.678;2022-08-03T09:02:38;6.53;;;2.13;;
9880;SDS011;4979;51.014;6.678;2022-08-03T09:05:06;5.18;;;2.00;;
9880;SDS011;4979;51.014;6.678;2022-08-03T09:07:35;4.10;;;1.90;;
9880;SDS011;4979;51.014;6.678;2022-08-03T09:10:01;5.85;;;1.55;;
9880;SDS011;4979;51.014;6.678;2022-08-03T09:12:27;5.65;;;2.20;;
9880;SDS011;4979;51.014;6.678;2022-08-03T09:14:53;3.28;;;1.90;;
9880;SDS011;4979;51.014;6.678;2022-08-03T09:17:19;5.68;;;2.20;;
9880;SDS011;4979;51.014;6.678;2022-08-03T09:20:02;3.33;;;1.70;;
9880;SDS011;4979;51.014;6.678;2022-08-03T09:22:29;3.75;;;1.85;;
9880;SDS011;4979;51.014;6.678;2022-08-03T09:25:01;3.38;;;1.90;;
9880;SDS011;4979;51.014;6.678;2022-08-03T09:27:44;3.78;;;1.83;;
9880;SDS011;4979;51.014;6.678;2022-08-03T09:30:11;2.10;;;1.77;;
9880;SDS011;4979;51.014;6.678;2022-08-03T09:32:38;2.45;;;1.85;;
9880;SDS011;4979;51.014;6.678;2022-08-03T09:35:04;6.00;;;2.10;;
9880;SDS011;4979;51.014;6.678;2022-08-03T09:37:30;4.35;;;1.73;;
9880;SDS011;4979;51.014;6.678;2022-08-03T09:39:55;2.42;;;2.22;;
9880;SDS011;4979;51.014;6.678;2022-08-03T09:42:21;1.70;;;1.60;;
9880;SDS011;4979;51.014;6.678;2022-08-03T09:44:48;5.13;;;1.92;;
9880;SDS011;4979;51.014;6.678;2022-08-03T09:47:16;5.22;;;1.60;;
9880;SDS011;4979;51.014;6.678;2022-08-03T09:52:29;2.75;;;1.80;;
9880;SDS011;4979;51.014;6.678;2022-08-03T09:54:56;2.47;;;1.50;;
9880;SDS011;4979;51.014;6.678;2022-08-03T09:57:24;2.42;;;1.63;;
9880;SDS011;4979;51.014;6.678;2022-08-03T09:59:51;3.20;;;1.90;;
9880;SDS011;4979;51.014;6.678;2022-08-03T10:02:22;2.88;;;1.60;;
9880;SDS011;4979;51.014;6.678;2022-08-03T10:04:50;5.22;;;1.67;;
9880;SDS011;4979;51.014;6.678;2022-08-03T10:07:17;4.55;;;1.70;;
9880;SDS011;4979;51.014;6.678;2022-08-03T10:09:57;3.78;;;1.52;;
9880;SDS011;4979;51.014;6.678;2022-08-03T10:12:26;1.65;;;1.48;;
9880;SDS011;4979;51.014;6.678;2022-08-03T10:14:53;3.55;;;1.92;;
9880;SDS011;4979;51.014;6.678;2022-08-03T10:17:20;2.65;;;1.60;;
9880;SDS011;4979;51.014;6.678;2022-08-03T10:19:47;1.63;;;1.52;;
9880;SDS011;4979;51.014;6.678;2022-08-03T10:22:22;2.63;;;1.67;;
9880;SDS011;4979;51.014;6.678;2022-08-03T10:27:31;3.05;;;1.48;;
9880;SDS011;4979;51.014;6.678;2022-08-03T10:30:03;5.25;;;1.55;;
9880;SDS011;4979;51.014;6.678;2022-08-03T10:32:39;1.50;;;1.40;;
9880;SDS011;4979;51.014;6.678;2022-08-03T10:35:14;1.98;;;1.40;;
9880;SDS011;4979;51.014;6.678;2022-08-03T10:37:43;6.07;;;1.30;;
9880;SDS011;4979;51.014;6.678;2022-08-03T10:40:16;3.08;;;1.50;;
9880;SDS011;4979;51.014;6.678;2022-08-03T10:42:45;1.30;;;1.20;;
9880;SDS011;4979;51.014;6.678;2022-08-03T10:45:18;1.50;;;1.40;;
9880;SDS011;4979;51.014;6.678;2022-08-03T10:47:47;1.88;;;1.48;;
9880;SDS011;4979;51.014;6.678;2022-08-03T10:50:15;2.33;;;1.75;;
9880;SDS011;4979;51.014;6.678;2022-08-03T10:55:33;4.53;;;1.50;;
9880;SDS011;4979;51.014;6.678;2022-08-03T11:01:06;2.30;;;1.55;;
9880;SDS011;4979;51.014;6.678;2022-08-03T11:03:33;2.10;;;1.63;;
9880;SDS011;4979;51.014;6.678;2022-08-03T11:06:19;3.72;;;1.98;;
9880;SDS011;4979;51.014;6.678;2022-08-03T11:08:47;2.28;;;1.33;;
9880;SDS011;4979;51.014;6.678;2022-08-03T11:16:27;1.50;;;1.40;;
9880;SDS011;4979;51.014;6.678;2022-08-03T11:19:00;4.95;;;1.40;;
9880;SDS011;4979;51.014;6.678;2022-08-03T11:27:30;1.80;;;1.58;;
9880;SDS011;4979;51.014;6.678;2022-08-03T11:35:07;2.17;;;1.80;;
9880;SDS011;4979;51.014;6.678;2022-08-03T11:38:22;4.38;;;2.35;;
9880;SDS011;4979;51.014;6.678;2022-08-03T11:40:33;2.92;;;1.70;;
9880;SDS011;4979;51.014;6.678;2022-08-03T11:42:59;2.75;;;1.40;;
9880;SDS011;4979;51.014;6.678;2022-08-03T11:45:25;2.30;;;1.95;;
9880;SDS011;4979;51.014;6.678;2022-08-03T11:47:52;4.03;;;1.52;;
9880;SDS011;4979;51.014;6.678;2022-08-03T11:50:19;2.50;;;1.63;;
9880;SDS011;4979;51.014;6.678;2022-08-03T11:52:46;4.38;;;1.73;;
9880;SDS011;4979;51.014;6.678;2022-08-03T11:55:13;1.60;;;1.42;;
9880;SDS011;4979;51.014;6.678;2022-08-03T11:57:41;1.80;;;1.30;;
9880;SDS011;4979;51.014;6.678;2022-08-03T12:00:20;3.42;;;1.40;;
9880;SDS011;4979;51.014;6.678;2022-08-03T12:03:03;1.58;;;1.30;;
9880;SDS011;4979;51.014;6.678;2022-08-03T12:05:40;2.97;;;1.60;;
9880;SDS011;4979;51.014;6.678;2022-08-03T12:08:14;2.63;;;1.75;;
9880;SDS011;4979;51.014;6.678;2022-08-03T12:10:45;2.00;;;1.48;;
9880;SDS011;4979;51.014;6.678;2022-08-03T12:13:14;5.05;;;2.03;;
9880;SDS011;4979;51.014;6.678;2022-08-03T12:15:41;4.55;;;1.45;;
9880;SDS011;4979;51.014;6.678;2022-08-03T12:18:14;2.03;;;1.70;;
9880;SDS011;4979;51.014;6.678;2022-08-03T12:20:41;3.72;;;1.92;;
9880;SDS011;4979;51.014;6.678;2022-08-03T12:23:07;2.78;;;1.48;;
9880;SDS011;4979;51.014;6.678;2022-08-03T12:25:34;5.07;;;1.48;;
9880;SDS011;4979;51.014;6.678;2022-08-03T12:30:33;4.47;;;1.75;;
9880;SDS011;4979;51.014;6.678;2022-08-03T12:33:09;2.90;;;1.80;;
9880;SDS011;4979;51.014;6.678;2022-08-03T12:35:47;3.08;;;1.80;;
9880;SDS011;4979;51.014;6.678;2022-08-03T12:38:21;1.65;;;1.55;;
9880;SDS011;4979;51.014;6.678;2022-08-03T12:40:59;5.13;;;1.60;;
9880;SDS011;4979;51.014;6.678;2022-08-03T12:43:32;3.88;;;1.40;;
9880;SDS011;4979;51.014;6.678;2022-08-03T12:46:08;2.67;;;1.55;;
9880;SDS011;4979;51.014;6.678;2022-08-03T12:48:35;1.60;;;1.50;;
9880;SDS011;4979;51.014;6.678;2022-08-03T12:51:08;2.15;;;1.60;;
9880;SDS011;4979;51.014;6.678;2022-08-03T12:53:34;3.75;;;1.98;;
9880;SDS011;4979;51.014;6.678;2022-08-03T12:56:04;3.38;;;1.60;;
9880;SDS011;4979;51.014;6.678;2022-08-03T12:58:31;5.78;;;2.40;;
9880;SDS011;4979;51.014;6.678;2022-08-03T13:00:58;3.85;;;1.58;;
9880;SDS011;4979;51.014;6.678;2022-08-03T13:03:24;2.85;;;1.60;;
9880;SDS011;4979;51.014;6.678;2022-08-03T13:05:49;3.72;;;1.42;;
9880;SDS011;4979;51.014;6.678;2022-08-03T13:08:18;2.33;;;1.70;;
9880;SDS011;4979;51.014;6.678;2022-08-03T13:10:45;7.22;;;1.90;;
9880;SDS011;4979;51.014;6.678;2022-08-03T13:13:11;3.40;;;1.73;;
9880;SDS011;4979;51.014;6.678;2022-08-03T13:15:36;9.63;;;2.00;;
9880;SDS011;4979;51.014;6.678;2022-08-03T13:18:02;3.40;;;1.60;;
9880;SDS011;4979;51.014;6.678;2022-08-03T13:20:28;6.68;;;1.73;;
9880;SDS011;4979;51.014;6.678;2022-08-03T13:22:53;3.55;;;1.58;;
9880;SDS011;4979;51.014;6.678;2022-08-03T13:25:20;3.80;;;2.22;;
9880;SDS011;4979;51.014;6.678;2022-08-03T13:27:46;3.30;;;1.67;;
9880;SDS011;4979;51.014;6.678;2022-08-03T13:30:13;4.60;;;1.60;;
9880;SDS011;4979;51.014;6.678;2022-08-03T13:32:39;2.38;;;1.45;;
9880;SDS011;4979;51.014;6.678;2022-08-03T13:35:05;4.20;;;1.40;;
9880;SDS011;4979;51.014;6.678;2022-08-03T13:37:32;3.13;;;1.73;;
9880;SDS011;4979;51.014;6.678;2022-08-03T13:39:59;2.15;;;1.50;;
9880;SDS011;4979;51.014;6.678;2022-08-03T13:42:29;2.70;;;1.85;;
9880;SDS011;4979;51.014;6.678;2022-08-03T13:44:56;2.85;;;1.60;;
9880;SDS011;4979;51.014;6.678;2022-08-03T13:47:21;2.45;;;1.70;;
9880;SDS011;4979;51.014;6.678;2022-08-03T13:49:47;2.13;;;1.50;;
9880;SDS011;4979;51.014;6.678;2022-08-03T13:52:15;2.10;;;1.63;;
9880;SDS011;4979;51.014;6.678;2022-08-03T13:54:41;2.15;;;1.42;;
9880;SDS011;4979;51.014;6.678;2022-08-03T13:57:06;1.90;;;1.70;;
9880;SDS011;4979;51.014;6.678;2022-08-03T13:59:32;2.35;;;1.50;;
9880;SDS011;4979;51.014;6.678;2022-08-03T14:01:58;3.13;;;1.42;;
9880;SDS011;4979;51.014;6.678;2022-08-03T14:04:24;2.38;;;1.70;;
9880;SDS011;4979;51.014;6.678;2022-08-03T14:06:49;2.22;;;1.77;;
9880;SDS011;4979;51.014;6.678;2022-08-03T14:09:15;2.67;;;1.83;;
9880;SDS011;4979;51.014;6.678;2022-08-03T14:11:41;2.85;;;1.50;;
9880;SDS011;4979;51.014;6.678;2022-08-03T14:14:08;2.13;;;1.83;;
9880;SDS011;4979;51.014;6.678;2022-08-03T14:16:34;3.90;;;1.85;;
9880;SDS011;4979;51.014;6.678;2022-08-03T14:19:00;3.40;;;1.50;;
9880;SDS011;4979;51.014;6.678;2022-08-03T14:21:26;2.38;;;1.80;;
9880;SDS011;4979;51.014;6.678;2022-08-03T14:23:51;2.60;;;1.85;;
9880;SDS011;4979;51.014;6.678;2022-08-03T14:26:17;3.25;;;1.75;;
9880;SDS011;4979;51.014;6.678;2022-08-03T14:28:44;2.70;;;1.50;;
9880;SDS011;4979;51.014;6.678;2022-08-03T14:31:10;1.70;;;1.60;;
9880;SDS011;4979;51.014;6.678;2022-08-03T14:33:35;3.03;;;1.40;;
9880;SDS011;4979;51.014;6.678;2022-08-03T14:36:01;4.40;;;1.63;;
9880;SDS011;4979;51.014;6.678;2022-08-03T14:38:28;1.60;;;1.50;;
9880;SDS011;4979;51.014;6.678;2022-08-03T14:40:53;2.67;;;1.50;;
9880;SDS011;4979;51.014;6.678;2022-08-03T14:43:19;3.55;;;1.48;;
9880;SDS011;4979;51.014;6.678;2022-08-03T14:45:48;2.42;;;1.60;;
9880;SDS011;4979;51.014;6.678;2022-08-03T14:48:17;9.52;;;1.92;;
9880;SDS011;4979;51.014;6.678;2022-08-03T14:50:47;5.95;;;1.60;;
9880;SDS011;4979;51.014;6.678;2022-08-03T14:53:13;2.58;;;1.42;;
9880;SDS011;4979;51.014;6.678;2022-08-03T14:55:39;1.88;;;1.38;;
9880;SDS011;4979;51.014;6.678;2022-08-03T14:58:04;1.73;;;1.60;;
9880;SDS011;4979;51.014;6.678;2022-08-03T15:00:34;2.60;;;1.88;;
9880;SDS011;4979;51.014;6.678;2022-08-03T15:03:01;1.40;;;1.30;;
9880;SDS011;4979;51.014;6.678;2022-08-03T15:05:27;3.85;;;1.70;;
9880;SDS011;4979;51.014;6.678;2022-08-03T15:07:53;1.67;;;1.40;;
9880;SDS011;4979;51.014;6.678;2022-08-03T15:10:18;1.67;;;1.55;;
9880;SDS011;4979;51.014;6.678;2022-08-03T15:12:44;3.25;;;1.60;;
9880;SDS011;4979;51.014;6.678;2022-08-03T15:15:10;2.08;;;1.33;;
9880;SDS011;4979;51.014;6.678;2022-08-03T15:17:36;1.23;;;1.20;;
9880;SDS011;4979;51.014;6.678;2022-08-03T15:20:02;2.65;;;1.50;;
9880;SDS011;4979;51.014;6.678;2022-08-03T15:22:28;3.35;;;1.42;;
9880;SDS011;4979;51.014;6.678;2022-08-03T15:24:54;3.42;;;1.25;;
9880;SDS011;4979;51.014;6.678;2022-08-03T15:27:20;4.80;;;2.10;;
9880;SDS011;4979;51.014;6.678;2022-08-03T15:29:46;3.90;;;1.98;;
9880;SDS011;4979;51.014;6.678;2022-08-03T15:32:11;1.40;;;1.30;;
9880;SDS011;4979;51.014;6.678;2022-08-03T15:34:37;1.42;;;1.33;;
9880;SDS011;4979;51.014;6.678;2022-08-03T15:37:03;4.05;;;1.50;;
9880;SDS011;4979;51.014;6.678;2022-08-03T15:39:29;4.40;;;1.60;;
9880;SDS011;4979;51.014;6.678;2022-08-03T15:41:55;4.72;;;1.40;;
9880;SDS011;4979;51.014;6.678;2022-08-03T15:44:20;2.63;;;1.33;;
9880;SDS011;4979;51.014;6.678;2022-08-03T15:46:46;4.00;;;1.02;;
9880;SDS011;4979;51.014;6.678;2022-08-03T15:49:11;4.10;;;1.60;;
9880;SDS011;4979;51.014;6.678;2022-08-03T15:51:37;3.40;;;1.48;;
9880;SDS011;4979;51.014;6.678;2022-08-03T15:54:03;4.93;;;1.50;;
9880;SDS011;4979;51.014;6.678;2022-08-03T15:56:30;1.70;;;1.38;;
9880;SDS011;4979;51.014;6.678;2022-08-03T15:58:56;2.95;;;1.10;;
9880;SDS011;4979;51.014;6.678;2022-08-03T16:01:22;3.80;;;1.60;;